Time;durP1;ratioP1;P1;durP2;ratioP2;P2;SDS_P1;SDS_P2;PMS_P1;PMS_P2;Temp;Humidity;BMP_temperature;BMP_pressure;BME280_temperature;BME280_humidity;BME280_pressure;Samples;Min_cycle;Max_cycle;Signal;HPM_P1;HPM_P2
2021/03/02 00:02:06;;;;;;;22.30;11.20;;;6.80;91.90;;;;;;5060347;28;20031;-73
2021/03/02 00:04:32;;;;;;;20.95;10.95;;;6.80;91.90;;;;;;5060161;28;20033;-72
2021/03/02 00:06:58;;;;;;;19.10;10.15;;;6.80;92.00;;;;;;5054112;28;20029;-73
2021/03/02 00:09:26;;;;;;;18.10;10.18;;;6.80;92.00;;;;;;5050045;28;20385;-73
2021/03/02 00:11:52;;;;;;;20.95;10.48;;;6.80;92.00;;;;;;5051983;28;20021;-74
2021/03/02 00:14:36;;;;;;;20.10;10.50;;;6.70;92.00;;;;;;5053840;28;20090;-74
2021/03/02 00:17:30;;;;;;;20.42;10.30;;;6.70;92.00;;;;;;5042551;28;20037;-74
2021/03/02 00:20:25;;;;;;;20.13;11.50;;;6.60;92.00;;;;;;5034058;28;20030;-73
2021/03/02 00:23:20;;;;;;;22.95;11.30;;;6.60;92.10;;;;;;5049682;28;20061;-74
2021/03/02 00:26:07;;;;;;;21.88;12.02;;;6.60;92.10;;;;;;5053136;28;20021;-74
2021/03/02 00:28:34;;;;;;;20.15;11.40;;;6.60;92.10;;;;;;5063525;28;20550;-74
2021/03/02 00:30:59;;;;;;;26.15;12.75;;;6.50;92.20;;;;;;5053651;28;20029;-74
2021/03/02 00:33:26;;;;;;;23.85;12.80;;;6.50;92.20;;;;;;5052116;28;20059;-73
2021/03/02 00:35:52;;;;;;;22.73;12.35;;;6.50;92.30;;;;;;5057045;28;20557;-73
2021/03/02 00:38:17;;;;;;;24.52;12.35;;;6.50;92.40;;;;;;5054599;28;20029;-74
2021/03/02 00:40:43;;;;;;;23.23;12.00;;;6.50;92.50;;;;;;5044280;28;20025;-74
2021/03/02 00:43:09;;;;;;;20.50;11.88;;;6.50;92.50;;;;;;5044093;28;20036;-74
2021/03/02 00:45:34;;;;;;;25.58;12.13;;;6.40;92.50;;;;;;5053617;28;20021;-74
2021/03/02 00:48:00;;;;;;;22.55;10.93;;;6.50;92.60;;;;;;5051889;28;20094;-74
2021/03/02 00:50:27;;;;;;;20.23;10.88;;;6.40;92.60;;;;;;5052952;28;20083;-73
2021/03/02 00:52:53;;;;;;;23.50;11.57;;;6.40;92.60;;;;;;5052350;28;20037;-74
2021/03/02 00:55:19;;;;;;;22.33;12.40;;;6.40;92.70;;;;;;5053723;28;20025;-73
2021/03/02 00:57:44;;;;;;;20.73;11.85;;;6.40;92.70;;;;;;5062840;28;20052;-73
2021/03/02 01:00:10;;;;;;;24.75;12.20;;;6.40;92.70;;;;;;5073451;28;20088;-73
2021/03/02 01:02:37;;;;;;;21.67;11.30;;;6.40;92.80;;;;;;5068323;28;20108;-73
2021/03/02 01:05:04;;;;;;;22.58;11.95;;;6.30;92.80;;;;;;5055554;28;20032;-73
2021/03/02 01:07:30;;;;;;;20.13;10.63;;;6.30;92.90;;;;;;5052060;28;20382;-72
2021/03/02 01:09:55;;;;;;;21.10;11.23;;;6.30;92.90;;;;;;5065442;28;20073;-72
2021/03/02 01:12:26;;;;;;;24.83;12.38;;;6.20;92.90;;;;;;5065961;28;20029;-73
2021/03/02 01:14:52;;;;;;;24.55;12.75;;;6.20;93.00;;;;;;5053700;28;20469;-73
2021/03/02 01:17:18;;;;;;;25.92;13.07;;;6.20;93.10;;;;;;5053175;28;20025;-73
2021/03/02 01:19:43;;;;;;;23.23;11.32;;;6.20;93.10;;;;;;5050132;28;20029;-72
2021/03/02 01:22:08;;;;;;;21.58;11.15;;;6.20;93.10;;;;;;5052495;28;20021;-71
2021/03/02 01:24:34;;;;;;;21.73;11.32;;;6.10;93.10;;;;;;5045714;28;20037;-72
2021/03/02 01:26:59;;;;;;;21.52;10.52;;;6.10;93.20;;;;;;5043233;28;20017;-72
2021/03/02 01:29:25;;;;;;;23.70;12.40;;;6.10;93.20;;;;;;5052488;28;20432;-71
2021/03/02 01:31:50;;;;;;;22.85;12.32;;;6.10;93.20;;;;;;5053510;28;20032;-72
2021/03/02 01:34:16;;;;;;;20.20;11.63;;;6.00;93.20;;;;;;5051662;28;20579;-73
2021/03/02 01:36:41;;;;;;;21.75;11.35;;;6.10;93.20;;;;;;5051210;28;20021;-71
2021/03/02 01:39:07;;;;;;;24.42;11.98;;;6.10;93.20;;;;;;5052924;28;20104;-71
2021/03/02 01:41:32;;;;;;;23.15;11.80;;;6.10;93.20;;;;;;5046985;28;20021;-73
2021/03/02 01:43:58;;;;;;;21.05;11.55;;;6.10;93.30;;;;;;5059088;28;20037;-73
2021/03/02 01:46:23;;;;;;;20.73;11.35;;;6.00;93.20;;;;;;5051807;28;20040;-73
2021/03/02 01:48:49;;;;;;;23.98;12.15;;;6.10;93.30;;;;;;5051752;28;20021;-73
2021/03/02 01:51:15;;;;;;;23.25;12.05;;;6.00;93.30;;;;;;5051063;28;20062;-73
2021/03/02 01:53:40;;;;;;;26.30;13.80;;;6.00;93.30;;;;;;5064259;28;20393;-73
2021/03/02 01:56:06;;;;;;;23.05;11.45;;;5.90;93.30;;;;;;5045108;28;20018;-73
2021/03/02 01:58:32;;;;;;;22.52;11.68;;;5.90;93.40;;;;;;5050039;28;20037;-73
2021/03/02 02:01:07;;;;;;;23.05;13.25;;;5.90;93.40;;;;;;5050834;28;20108;-73
2021/03/02 02:03:45;;;;;;;20.60;11.70;;;5.90;93.50;;;;;;5063279;28;20504;-73
2021/03/02 02:06:30;;;;;;;21.00;11.55;;;6.00;93.50;;;;;;5052658;28;20040;-72
2021/03/02 02:09:05;;;;;;;23.08;10.93;;;6.00;93.40;;;;;;5050141;28;20419;-73
2021/03/02 02:11:40;;;;;;;20.55;11.13;;;6.00;93.40;;;;;;5052304;28;20028;-72
2021/03/02 02:14:30;;;;;;;22.92;12.25;;;5.90;93.30;;;;;;5051212;28;20025;-71
2021/03/02 02:17:00;;;;;;;23.40;10.73;;;5.90;93.30;;;;;;5052207;28;20040;-72
2021/03/02 02:19:42;;;;;;;19.25;11.20;;;5.90;93.30;;;;;;5060826;28;20032;-72
2021/03/02 02:22:13;;;;;;;22.98;11.70;;;5.90;93.40;;;;;;5071101;28;20039;-73
2021/03/02 02:25:00;;;;;;;25.35;11.77;;;5.90;93.40;;;;;;5063671;28;20067;-73
2021/03/02 02:27:30;;;;;;;23.45;12.70;;;5.90;93.40;;;;;;5052452;28;20121;-73
2021/03/02 02:29:56;;;;;;;19.10;10.43;;;5.90;93.40;;;;;;5060651;28;20647;-73
2021/03/02 02:32:22;;;;;;;23.27;11.45;;;5.80;93.40;;;;;;5072185;28;20020;-73
2021/03/02 02:34:50;;;;;;;23.77;10.73;;;5.80;93.40;;;;;;5065200;28;20029;-73
2021/03/02 02:37:18;;;;;;;24.23;11.60;;;5.90;93.50;;;;;;5061937;28;20037;-73
2021/03/02 02:39:44;;;;;;;19.92;11.05;;;5.90;93.40;;;;;;5064549;28;20047;-73
2021/03/02 02:42:11;;;;;;;20.95;10.70;;;5.90;93.40;;;;;;5051835;28;20032;-73
2021/03/02 02:44:37;;;;;;;21.13;10.07;;;5.90;93.30;;;;;;5060806;28;20044;-73
2021/03/02 02:47:03;;;;;;;18.58;10.18;;;5.90;93.30;;;;;;5050479;28;20021;-73
2021/03/02 02:49:29;;;;;;;19.42;10.27;;;5.90;93.30;;;;;;5061740;28;20032;-73
2021/03/02 02:51:55;;;;;;;21.70;10.63;;;5.90;93.30;;;;;;5051406;28;20056;-72
2021/03/02 02:54:22;;;;;;;21.73;10.95;;;5.80;93.30;;;;;;5057972;28;20075;-72
2021/03/02 02:56:49;;;;;;;19.02;10.85;;;5.80;93.20;;;;;;5051285;28;20490;-73
2021/03/02 02:59:22;;;;;;;19.85;11.43;;;5.70;93.20;;;;;;5058839;28;20432;-72
2021/03/02 03:01:58;;;;;;;23.25;11.15;;;5.80;93.30;;;;;;5046106;28;20032;-72
2021/03/02 03:04:53;;;;;;;22.50;11.00;;;5.80;93.40;;;;;;5058634;28;20496;-73
2021/03/02 03:07:24;;;;;;;19.92;10.60;;;5.80;93.30;;;;;;5060589;28;20056;-73
2021/03/02 03:09:52;;;;;;;23.58;11.35;;;5.80;93.30;;;;;;5041358;28;20122;-73
2021/03/02 03:12:19;;;;;;;20.27;10.73;;;5.80;93.30;;;;;;5030852;28;20029;-72
2021/03/02 03:14:53;;;;;;;19.65;9.90;;;5.70;93.30;;;;;;5037438;28;20036;-73
2021/03/02 03:17:20;;;;;;;21.48;10.65;;;5.70;93.40;;;;;;5051450;28;20029;-73
2021/03/02 03:19:46;;;;;;;20.20;9.77;;;5.70;93.40;;;;;;5057320;28;20036;-73
2021/03/02 03:22:14;;;;;;;22.70;11.35;;;5.70;93.30;;;;;;5049830;28;20029;-73
2021/03/02 03:24:40;;;;;;;24.05;12.45;;;5.70;93.30;;;;;;5052900;28;20108;-73
2021/03/02 03:27:06;;;;;;;21.80;11.02;;;5.60;93.30;;;;;;5051209;28;20032;-73
2021/03/02 03:29:33;;;;;;;24.45;12.05;;;5.60;93.30;;;;;;5049367;28;20033;-73
2021/03/02 03:32:00;;;;;;;23.85;12.10;;;5.60;93.40;;;;;;5065336;28;20587;-73
2021/03/02 03:34:26;;;;;;;21.70;11.35;;;5.60;93.50;;;;;;5048850;28;20035;-74
2021/03/02 03:36:52;;;;;;;23.67;12.05;;;5.60;93.40;;;;;;5050108;28;20477;-73
2021/03/02 03:39:18;;;;;;;20.08;10.35;;;5.60;93.30;;;;;;5060696;28;20031;-73
2021/03/02 03:41:43;;;;;;;22.33;10.77;;;5.50;93.20;;;;;;5071191;28;20031;-73
2021/03/02 03:44:10;;;;;;;22.45;11.20;;;5.50;93.30;;;;;;5073754;28;20100;-74
2021/03/02 03:46:36;;;;;;;22.15;12.30;;;5.50;93.30;;;;;;5077434;28;20017;-73
2021/03/02 03:49:01;;;;;;;22.92;11.15;;;5.40;93.30;;;;;;5062447;28;20135;-73
2021/03/02 03:51:28;;;;;;;19.35;10.57;;;5.40;93.30;;;;;;5054667;28;20476;-73
2021/03/02 03:53:54;;;;;;;19.58;11.23;;;5.40;93.30;;;;;;5047619;28;20021;-73
2021/03/02 03:56:20;;;;;;;20.80;10.60;;;5.40;93.40;;;;;;5050556;28;20416;-73
2021/03/02 03:58:47;;;;;;;24.08;12.55;;;5.40;93.40;;;;;;5054517;28;20032;-74
2021/03/02 04:01:13;;;;;;;22.20;10.77;;;5.40;93.40;;;;;;5066722;28;20551;-74
2021/03/02 04:03:40;;;;;;;21.17;11.57;;;5.40;93.40;;;;;;5047044;28;20024;-74
2021/03/02 04:06:07;;;;;;;22.15;11.75;;;5.40;93.40;;;;;;5032350;28;20037;-73
2021/03/02 04:08:33;;;;;;;23.70;12.50;;;5.40;93.40;;;;;;5050702;28;20025;-73
2021/03/02 04:10:59;;;;;;;21.52;11.63;;;5.50;93.40;;;;;;5050036;28;20450;-73
2021/03/02 04:13:26;;;;;;;22.50;11.18;;;5.50;93.30;;;;;;5034578;28;20029;-73
2021/03/02 04:15:51;;;;;;;21.73;11.98;;;5.40;93.30;;;;;;5070305;28;20101;-73
2021/03/02 04:18:18;;;;;;;23.45;11.07;;;5.50;93.30;;;;;;5050096;28;21270;-73
2021/03/02 04:20:47;;;;;;;21.83;10.48;;;5.50;93.30;;;;;;5050605;28;20116;-73
2021/03/02 04:23:13;;;;;;;20.90;11.13;;;5.40;93.40;;;;;;5048491;28;20068;-73
2021/03/02 04:25:38;;;;;;;20.20;10.48;;;5.40;93.40;;;;;;5058467;28;20064;-73
2021/03/02 04:28:05;;;;;;;22.27;10.63;;;5.40;93.30;;;;;;5053487;28;20245;-73
2021/03/02 04:30:31;;;;;;;21.45;11.18;;;5.30;93.30;;;;;;5053242;28;20028;-73
2021/03/02 04:32:57;;;;;;;20.38;10.43;;;5.30;93.40;;;;;;5053100;28;20179;-73
2021/03/02 04:35:23;;;;;;;16.70;9.32;;;5.30;93.40;;;;;;5052137;28;20040;-73
2021/03/02 04:37:49;;;;;;;21.38;10.07;;;5.20;93.40;;;;;;5066811;28;20463;-73
2021/03/02 04:40:33;;;;;;;19.95;10.25;;;5.20;93.50;;;;;;5052875;28;20106;-72
2021/03/02 04:43:19;;;;;;;17.10;9.00;;;5.20;93.40;;;;;;5052489;28;20079;-73
2021/03/02 04:46:05;;;;;;;18.38;9.25;;;5.10;93.40;;;;;;5052562;28;20413;-73
2021/03/02 04:48:31;;;;;;;17.55;8.98;;;5.20;93.40;;;;;;5055769;28;20031;-73
2021/03/02 04:50:57;;;;;;;19.02;10.18;;;5.10;93.40;;;;;;5056285;28;20417;-73
2021/03/02 04:53:22;;;;;;;16.77;9.63;;;5.10;93.40;;;;;;5052505;28;20116;-73
2021/03/02 04:55:48;;;;;;;15.20;8.73;;;5.10;93.40;;;;;;5032143;28;20486;-73
2021/03/02 04:58:13;;;;;;;19.88;10.30;;;5.10;93.40;;;;;;5039572;28;20037;-73
2021/03/02 05:00:39;;;;;;;16.75;9.25;;;5.10;93.40;;;;;;5073614;28;20017;-73
2021/03/02 05:03:04;;;;;;;19.25;9.40;;;5.00;93.30;;;;;;5066366;28;20508;-73
2021/03/02 05:05:30;;;;;;;17.83;9.52;;;5.00;93.40;;;;;;5053008;28;20056;-73
2021/03/02 05:07:56;;;;;;;21.33;10.70;;;5.00;93.40;;;;;;5051793;28;20021;-73
2021/03/02 05:10:21;;;;;;;18.05;8.82;;;5.00;93.40;;;;;;5069148;28;20401;-72
2021/03/02 05:12:47;;;;;;;16.15;9.43;;;5.00;93.30;;;;;;5066776;28;20032;-73
2021/03/02 05:15:13;;;;;;;17.70;9.02;;;5.00;93.30;;;;;;5052427;28;20032;-71
2021/03/02 05:17:38;;;;;;;15.57;9.10;;;4.90;93.20;;;;;;5052691;28;20025;-71
2021/03/02 05:20:05;;;;;;;16.95;9.38;;;4.90;93.30;;;;;;5066768;28;20051;-73
2021/03/02 05:22:30;;;;;;;18.83;9.57;;;4.90;93.30;;;;;;5055298;28;20029;-71
2021/03/02 05:24:56;;;;;;;15.80;8.65;;;4.80;93.20;;;;;;5065731;28;20047;-72
2021/03/02 05:27:21;;;;;;;17.23;8.93;;;4.80;93.20;;;;;;5057338;28;20032;-71
2021/03/02 05:29:47;;;;;;;15.48;8.88;;;4.80;93.30;;;;;;5064379;28;20040;-72
2021/03/02 05:32:12;;;;;;;19.45;9.65;;;4.80;93.30;;;;;;5058975;28;20029;-73
2021/03/02 05:34:38;;;;;;;16.63;9.43;;;4.80;93.20;;;;;;5051871;28;20033;-72
2021/03/02 05:37:03;;;;;;;17.23;9.10;;;4.80;93.20;;;;;;5054900;28;20112;-72
2021/03/02 05:39:29;;;;;;;17.27;9.32;;;4.80;93.20;;;;;;5061302;28;20491;-72
2021/03/02 05:41:55;;;;;;;16.40;9.48;;;4.80;93.10;;;;;;5062212;28;20036;-72
2021/03/02 05:44:20;;;;;;;15.35;9.05;;;4.70;93.10;;;;;;5041108;28;20037;-72
2021/03/02 05:46:46;;;;;;;15.45;9.02;;;4.70;93.10;;;;;;5035594;28;20071;-72
2021/03/02 05:49:13;;;;;;;16.08;8.63;;;4.70;93.10;;;;;;5044440;28;20033;-72
2021/03/02 05:51:40;;;;;;;13.85;8.20;;;4.70;93.10;;;;;;5052541;28;20537;-72
2021/03/02 05:54:06;;;;;;;21.73;10.95;;;4.60;93.10;;;;;;5050571;28;20063;-72
2021/03/02 05:56:35;;;;;;;16.17;9.40;;;4.70;93.10;;;;;;5052607;28;20029;-72
2021/03/02 05:59:01;;;;;;;15.93;8.23;;;4.60;93.10;;;;;;5052866;28;20029;-71
2021/03/02 06:01:27;;;;;;;17.00;8.88;;;4.60;93.10;;;;;;5050414;28;20032;-71
2021/03/02 06:03:52;;;;;;;16.80;9.70;;;4.60;93.10;;;;;;5050310;28;20436;-71
2021/03/02 06:06:18;;;;;;;18.75;9.98;;;4.60;93.10;;;;;;5052118;28;20014;-70
2021/03/02 06:08:44;;;;;;;19.30;9.20;;;4.50;93.00;;;;;;5047184;28;20436;-74
2021/03/02 06:11:25;;;;;;;18.15;9.30;;;4.50;93.10;;;;;;5069593;28;20074;-75
2021/03/02 06:13:50;;;;;;;16.38;9.57;;;4.60;93.10;;;;;;5062945;28;20500;-70
2021/03/02 06:16:16;;;;;;;17.70;9.38;;;4.50;93.00;;;;;;5039054;28;20037;-71
2021/03/02 06:18:49;;;;;;;15.82;9.15;;;4.50;93.00;;;;;;5058563;28;20025;-71
2021/03/02 06:21:15;;;;;;;16.95;9.13;;;4.60;93.00;;;;;;5076712;28;20025;-71
2021/03/02 06:23:52;;;;;;;19.15;9.57;;;4.60;93.00;;;;;;5051093;28;20031;-71
2021/03/02 06:26:25;;;;;;;18.50;10.00;;;4.60;92.90;;;;;;5052556;28;20477;-72
2021/03/02 06:29:11;;;;;;;15.18;8.80;;;4.60;92.90;;;;;;5049183;28;20025;-71
2021/03/02 06:31:45;;;;;;;15.68;8.75;;;4.60;92.80;;;;;;5051762;28;20503;-72
2021/03/02 06:34:15;;;;;;;17.45;10.00;;;4.60;92.80;;;;;;5052445;28;20033;-72
2021/03/02 06:36:43;;;;;;;16.83;9.55;;;4.60;92.80;;;;;;5064859;28;20534;-71
2021/03/02 06:39:28;;;;;;;18.77;9.65;;;4.60;92.70;;;;;;5057741;28;20035;-71
2021/03/02 06:42:09;;;;;;;18.80;8.68;;;4.60;92.80;;;;;;5069405;28;20477;-71
2021/03/02 06:44:36;;;;;;;16.23;9.90;;;4.60;92.70;;;;;;5050778;28;20080;-71
2021/03/02 06:47:02;;;;;;;18.45;9.43;;;4.60;92.70;;;;;;5050029;28;20528;-71
2021/03/02 06:49:42;;;;;;;15.38;9.60;;;4.60;92.70;;;;;;5049342;28;20029;-70
2021/03/02 06:52:12;;;;;;;17.38;9.35;;;4.70;92.60;;;;;;5044593;28;20497;-71
2021/03/02 06:54:37;;;;;;;17.77;9.65;;;4.60;92.60;;;;;;5050363;28;20541;-71
2021/03/02 06:57:03;;;;;;;17.00;9.38;;;4.70;92.60;;;;;;5050377;28;20077;-71
2021/03/02 06:59:29;;;;;;;18.92;9.88;;;4.70;92.60;;;;;;5045908;28;20099;-71
2021/03/02 07:01:54;;;;;;;18.77;9.30;;;4.70;92.50;;;;;;5043873;28;20033;-71
2021/03/02 07:04:21;;;;;;;17.70;9.70;;;4.70;92.50;;;;;;5051646;28;20534;-71
2021/03/02 07:06:51;;;;;;;16.73;9.75;;;4.80;92.50;;;;;;5050287;28;20104;-71
2021/03/02 07:09:17;;;;;;;18.40;9.60;;;4.80;92.60;;;;;;5057194;28;20082;-72
2021/03/02 07:11:44;;;;;;;15.98;9.55;;;4.80;92.30;;;;;;5045591;28;20389;-73
2021/03/02 07:14:12;;;;;;;20.80;11.10;;;4.70;92.30;;;;;;5043010;28;20072;-70
2021/03/02 07:16:39;;;;;;;17.42;9.63;;;4.80;92.30;;;;;;5050498;28;20040;-70
2021/03/02 07:19:05;;;;;;;19.23;10.50;;;4.80;92.20;;;;;;5050181;28;20477;-70
2021/03/02 07:21:36;;;;;;;16.38;9.57;;;4.80;92.20;;;;;;5049910;28;20037;-70
2021/03/02 07:24:04;;;;;;;20.25;10.75;;;4.90;92.30;;;;;;5055970;28;20033;-70
2021/03/02 07:26:32;;;;;;;21.63;11.02;;;4.90;92.30;;;;;;5055478;28;20043;-70
2021/03/02 07:28:58;;;;;;;17.65;9.82;;;4.90;92.30;;;;;;5055763;28;20036;-70
2021/03/02 07:31:24;;;;;;;20.45;9.75;;;4.90;92.40;;;;;;5056940;28;20038;-69
2021/03/02 07:33:50;;;;;;;19.92;9.32;;;5.00;92.40;;;;;;5058838;28;20102;-69
2021/03/02 07:36:16;;;;;;;20.73;11.15;;;5.00;92.50;;;;;;5050884;28;20116;-70
2021/03/02 07:38:42;;;;;;;21.38;10.43;;;5.10;92.50;;;;;;5052890;28;20116;-70
2021/03/02 07:41:07;;;;;;;22.98;10.13;;;5.10;92.50;;;;;;5053207;28;20025;-73
2021/03/02 07:43:37;;;;;;;19.13;9.90;;;5.10;92.50;;;;;;5049796;28;20048;-71
2021/03/02 07:46:30;;;;;;;15.45;9.50;;;5.20;92.60;;;;;;5049961;28;20481;-75
2021/03/02 07:48:56;;;;;;;19.42;9.88;;;5.30;92.60;;;;;;5054859;28;20027;-73
2021/03/02 07:51:23;;;;;;;21.33;10.20;;;5.30;92.50;;;;;;5069814;28;20036;-73
2021/03/02 07:53:51;;;;;;;20.33;11.07;;;5.30;92.50;;;;;;5062422;28;20154;-73
2021/03/02 07:56:22;;;;;;;23.45;11.68;;;5.40;92.50;;;;;;5035753;28;20047;-72
2021/03/02 07:59:09;;;;;;;18.63;10.60;;;5.40;92.50;;;;;;5032777;28;20068;-72
2021/03/02 08:01:36;;;;;;;20.92;11.05;;;5.40;92.50;;;;;;5046917;28;20053;-72
2021/03/02 08:04:14;;;;;;;18.63;10.32;;;5.40;92.40;;;;;;5057027;28;20072;-72
2021/03/02 08:06:40;;;;;;;19.85;10.48;;;5.40;92.50;;;;;;5059034;28;20025;-77
2021/03/02 08:09:24;;;;;;;19.80;10.70;;;5.40;92.50;;;;;;5044821;28;20033;-77
2021/03/02 08:11:50;;;;;;;22.10;12.15;;;5.40;92.50;;;;;;5046637;28;20021;-77
2021/03/02 08:14:16;;;;;;;26.35;12.55;;;5.40;92.50;;;;;;5051155;28;20029;-79
2021/03/02 08:17:02;;;;;;;21.15;12.10;;;5.40;92.60;;;;;;5045312;28;20021;-79
2021/03/02 08:19:37;;;;;;;24.75;11.65;;;5.50;92.70;;;;;;5049544;28;20036;-79
2021/03/02 08:22:33;;;;;;;19.95;10.77;;;5.60;92.70;;;;;;5051066;28;20032;-77
2021/03/02 08:25:01;;;;;;;23.98;11.40;;;5.60;92.70;;;;;;5066998;28;20033;-80
2021/03/02 08:27:48;;;;;;;23.13;12.00;;;5.60;92.70;;;;;;5067126;28;20093;-80
2021/03/02 08:30:15;;;;;;;20.77;11.52;;;5.60;92.60;;;;;;5064977;28;20040;-79
2021/03/02 08:32:42;;;;;;;23.33;12.00;;;5.60;92.70;;;;;;5055186;28;20024;-78
2021/03/02 08:35:10;;;;;;;21.55;11.95;;;5.70;92.70;;;;;;5069505;28;20036;-72
2021/03/02 08:37:50;;;;;;;23.10;12.18;;;5.70;92.70;;;;;;5073888;28;20116;-77
2021/03/02 08:40:21;;;;;;;24.98;12.60;;;5.80;92.80;;;;;;5054648;28;20043;-77
2021/03/02 08:43:05;;;;;;;23.83;12.07;;;5.80;92.70;;;;;;5052517;28;20056;-77
2021/03/02 08:45:34;;;;;;;24.23;13.18;;;5.90;92.70;;;;;;5053700;28;20037;-77
2021/03/02 08:48:22;;;;;;;27.10;13.38;;;5.90;92.70;;;;;;5034599;28;20083;-77
2021/03/02 08:50:51;;;;;;;22.63;12.48;;;6.00;92.80;;;;;;5048273;28;20038;-77
2021/03/02 08:53:37;;;;;;;27.70;14.55;;;6.00;92.80;;;;;;5051449;28;20025;-76
2021/03/02 08:56:05;;;;;;;29.52;13.05;;;6.10;92.80;;;;;;5078129;28;20028;-76
2021/03/02 08:58:33;;;;;;;24.73;13.63;;;6.10;92.80;;;;;;5054187;28;20114;-77
2021/03/02 09:01:03;;;;;;;27.70;16.52;;;6.20;92.80;;;;;;5043442;28;20121;-77
2021/03/02 09:03:29;;;;;;;29.92;15.18;;;6.30;92.80;;;;;;5050860;28;20041;-77
2021/03/02 09:06:24;;;;;;;25.80;14.63;;;6.30;92.70;;;;;;5052978;28;20067;-76
2021/03/02 09:09:00;;;;;;;29.90;16.00;;;6.40;92.70;;;;;;5044172;28;20025;-77
2021/03/02 09:11:28;;;;;;;31.30;16.50;;;6.50;92.60;;;;;;5052064;28;20102;-76
2021/03/02 09:13:58;;;;;;;32.08;17.25;;;6.50;92.50;;;;;;5055490;28;20039;-72
2021/03/02 09:16:25;;;;;;;33.13;16.98;;;6.60;92.50;;;;;;5053986;28;20037;-70
2021/03/02 09:19:17;;;;;;;34.20;17.52;;;6.60;92.40;;;;;;5055832;28;20481;-74
2021/03/02 09:21:54;;;;;;;34.65;18.55;;;6.70;92.40;;;;;;5053245;28;20059;-74
2021/03/02 09:24:25;;;;;;;35.10;16.58;;;6.70;92.20;;;;;;5051851;28;20041;-74
2021/03/02 09:27:18;;;;;;;33.78;16.88;;;6.80;92.30;;;;;;5054696;28;20473;-75
2021/03/02 09:29:45;;;;;;;27.55;15.82;;;6.90;92.30;;;;;;5055883;28;20045;-74
2021/03/02 09:32:13;;;;;;;31.70;15.35;;;6.90;92.20;;;;;;5050459;28;20025;-74
2021/03/02 09:34:42;;;;;;;27.65;15.02;;;7.00;92.20;;;;;;5052903;28;20577;-74
2021/03/02 09:37:11;;;;;;;32.83;16.10;;;7.10;92.20;;;;;;5053279;28;20436;-79
2021/03/02 09:39:41;;;;;;;28.08;15.55;;;7.20;92.20;;;;;;5051608;28;20025;-74
2021/03/02 09:42:37;;;;;;;31.60;15.20;;;7.40;92.10;;;;;;5044159;28;20053;-74
2021/03/02 09:45:12;;;;;;;27.95;14.82;;;7.40;92.00;;;;;;5026677;28;20037;-74
2021/03/02 09:47:41;;;;;;;33.10;16.70;;;7.50;91.90;;;;;;5033327;28;20108;-75
2021/03/02 09:50:17;;;;;;;34.30;17.00;;;7.60;91.90;;;;;;5044372;28;20124;-75
2021/03/02 09:52:46;;;;;;;31.98;15.80;;;7.70;91.80;;;;;;5031664;28;20025;-74
2021/03/02 09:55:18;;;;;;;33.08;15.65;;;7.70;91.80;;;;;;5066258;28;20099;-74
2021/03/02 09:57:52;;;;;;;31.75;17.15;;;7.80;91.80;;;;;;5054072;28;20079;-74
2021/03/02 10:00:23;;;;;;;36.78;17.45;;;7.90;91.70;;;;;;5047856;28;20102;-75
2021/03/02 10:02:50;;;;;;;33.10;16.70;;;7.90;91.70;;;;;;5040513;28;20104;-75
2021/03/02 10:05:41;;;;;;;33.97;16.77;;;8.00;91.70;;;;;;5044989;28;20030;-75
2021/03/02 10:08:20;;;;;;;35.33;18.85;;;8.00;91.60;;;;;;5050851;28;20374;-74
2021/03/02 10:10:47;;;;;;;36.50;17.65;;;8.10;91.50;;;;;;5050078;28;20039;-74
2021/03/02 10:13:24;;;;;;;35.25;17.52;;;8.20;91.50;;;;;;5035317;28;20053;-74
2021/03/02 10:16:08;;;;;;;33.67;17.02;;;8.20;91.40;;;;;;5045591;28;20045;-74
2021/03/02 10:18:33;;;;;;;32.72;16.58;;;8.30;91.40;;;;;;5049384;28;20032;-74
2021/03/02 10:21:04;;;;;;;34.63;17.20;;;8.30;91.30;;;;;;5069649;28;20036;-75
2021/03/02 10:23:31;;;;;;;28.55;16.77;;;8.40;91.30;;;;;;5040898;28;20040;-74
2021/03/02 10:25:57;;;;;;;31.83;16.13;;;8.40;91.30;;;;;;5038483;28;20024;-76
2021/03/02 10:28:33;;;;;;;33.70;17.85;;;8.50;91.30;;;;;;5040308;28;20031;-75
2021/03/02 10:30:59;;;;;;;34.03;17.83;;;8.60;91.30;;;;;;5071099;28;20032;-75
2021/03/02 10:33:25;;;;;;;36.30;17.77;;;8.60;91.20;;;;;;5050634;28;20404;-75
2021/03/02 10:35:50;;;;;;;32.42;17.63;;;8.70;91.00;;;;;;5052158;28;20100;-75
2021/03/02 10:38:16;;;;;;;35.83;17.30;;;8.70;90.90;;;;;;5048184;28;20025;-74
2021/03/02 10:40:41;;;;;;;35.42;18.00;;;8.70;90.80;;;;;;5064606;28;20021;-75
2021/03/02 10:43:07;;;;;;;36.20;19.33;;;8.80;90.80;;;;;;5051052;28;20037;-73
2021/03/02 10:45:32;;;;;;;38.40;19.23;;;8.90;90.80;;;;;;5064655;28;20082;-70
2021/03/02 10:47:58;;;;;;;28.98;14.80;;;8.90;90.80;;;;;;5044390;28;20519;-70
2021/03/02 10:50:23;;;;;;;37.08;18.08;;;8.90;90.70;;;;;;5060651;28;20122;-71
2021/03/02 10:52:49;;;;;;;36.25;18.10;;;9.00;90.60;;;;;;5067241;28;20021;-71
2021/03/02 10:55:14;;;;;;;36.10;18.60;;;9.00;90.40;;;;;;5067056;28;20442;-71
2021/03/02 10:57:40;;;;;;;36.10;18.42;;;9.00;90.30;;;;;;5069374;28;20040;-77
2021/03/02 11:00:06;;;;;;;37.83;18.05;;;9.10;90.30;;;;;;5065348;28;20385;-71
2021/03/02 11:02:31;;;;;;;40.63;19.42;;;9.20;90.20;;;;;;5071509;28;20112;-73
2021/03/02 11:04:57;;;;;;;35.75;19.33;;;9.30;90.30;;;;;;5041241;28;20034;-73
2021/03/02 11:07:22;;;;;;;38.63;18.70;;;9.30;90.20;;;;;;5031630;28;20025;-75
2021/03/02 11:09:49;;;;;;;32.10;18.05;;;9.40;90.10;;;;;;5045602;28;20105;-74
2021/03/02 11:12:15;;;;;;;41.47;20.75;;;9.50;89.90;;;;;;5051930;28;20025;-72
2021/03/02 11:14:40;;;;;;;34.35;19.42;;;9.60;89.90;;;;;;5060978;28;20024;-70
2021/03/02 11:17:06;;;;;;;36.17;18.83;;;9.60;89.50;;;;;;5052744;28;20017;-71
2021/03/02 11:19:32;;;;;;;34.13;19.63;;;9.70;89.60;;;;;;5062272;28;20052;-70
2021/03/02 11:21:57;;;;;;;40.17;19.25;;;9.80;89.20;;;;;;5070038;28;20062;-74
2021/03/02 11:24:24;;;;;;;33.08;18.45;;;9.90;88.60;;;;;;5067493;28;20032;-71
2021/03/02 11:26:49;;;;;;;31.80;17.83;;;9.90;87.40;;;;;;5073130;28;20028;-73
2021/03/02 11:29:15;;;;;;;35.13;19.30;;;10.00;87.40;;;;;;5053101;28;20060;-74
2021/03/02 11:31:40;;;;;;;32.55;17.60;;;10.20;87.40;;;;;;5045685;28;20021;-75
2021/03/02 11:34:06;;;;;;;32.60;18.05;;;10.20;87.10;;;;;;5051362;28;20025;-70
2021/03/02 11:36:31;;;;;;;39.47;18.80;;;10.30;87.00;;;;;;5055894;28;20111;-71
2021/03/02 11:38:57;;;;;;;35.70;19.00;;;10.50;86.40;;;;;;5058269;28;20535;-70
2021/03/02 11:41:23;;;;;;;30.92;18.33;;;10.50;86.10;;;;;;5066971;28;20029;-70
2021/03/02 11:43:48;;;;;;;31.23;18.35;;;10.60;85.40;;;;;;5060447;28;20050;-73
2021/03/02 11:46:13;;;;;;;36.50;19.20;;;10.70;85.00;;;;;;5071246;28;20742;-73
2021/03/02 11:48:39;;;;;;;39.13;18.13;;;10.80;84.50;;;;;;5049526;28;20017;-72
2021/03/02 11:51:05;;;;;;;30.23;17.45;;;10.80;84.20;;;;;;5047777;28;20565;-71
2021/03/02 11:53:30;;;;;;;32.20;18.63;;;10.90;84.60;;;;;;5047203;28;20120;-71
2021/03/02 11:55:56;;;;;;;32.90;18.08;;;11.00;83.40;;;;;;5053784;28;20020;-71
2021/03/02 11:58:21;;;;;;;35.47;19.15;;;11.10;83.70;;;;;;5051779;28;20049;-72
2021/03/02 12:00:47;;;;;;;33.60;19.17;;;11.10;83.10;;;;;;5057758;28;20058;-71
2021/03/02 12:03:13;;;;;;;29.10;17.15;;;11.20;82.70;;;;;;5048524;28;20083;-71
2021/03/02 12:05:38;;;;;;;32.70;18.75;;;11.20;82.20;;;;;;5054267;28;20121;-71
2021/03/02 12:08:04;;;;;;;32.53;17.75;;;11.30;81.90;;;;;;5053463;28;20024;-72
2021/03/02 12:10:30;;;;;;;35.60;18.27;;;11.40;81.40;;;;;;5053111;28;20440;-72
2021/03/02 12:12:55;;;;;;;37.17;18.08;;;11.40;80.60;;;;;;5041815;28;20025;-76
2021/03/02 12:15:21;;;;;;;32.28;18.73;;;11.60;80.20;;;;;;5052131;28;20048;-72
2021/03/02 12:17:46;;;;;;;36.90;19.27;;;11.50;79.80;;;;;;5052673;28;20025;-73
2021/03/02 12:20:12;;;;;;;33.53;19.05;;;11.60;79.60;;;;;;5046911;28;20021;-72
2021/03/02 12:22:38;;;;;;;32.05;18.52;;;11.70;79.40;;;;;;5054105;28;20390;-71
2021/03/02 12:25:06;;;;;;;36.42;19.70;;;11.70;79.40;;;;;;5055013;28;21626;-70
2021/03/02 12:27:32;;;;;;;31.33;17.73;;;11.80;78.90;;;;;;5058867;28;20103;-71
2021/03/02 12:29:58;;;;;;;34.92;18.30;;;11.90;77.40;;;;;;5052343;28;20466;-70
2021/03/02 12:32:23;;;;;;;34.28;19.58;;;11.90;77.50;;;;;;5053965;28;20024;-72
2021/03/02 12:34:49;;;;;;;37.38;20.95;;;12.00;77.50;;;;;;5053786;28;20437;-71
2021/03/02 12:37:15;;;;;;;39.97;18.73;;;12.00;77.10;;;;;;5059457;28;20038;-73
2021/03/02 12:39:40;;;;;;;34.95;19.50;;;12.10;76.40;;;;;;5051330;28;20025;-72
2021/03/02 12:42:06;;;;;;;35.05;19.77;;;12.10;76.30;;;;;;5068067;28;20020;-72
2021/03/02 12:44:31;;;;;;;36.17;18.88;;;12.10;76.00;;;;;;5052979;28;20041;-72
2021/03/02 12:46:57;;;;;;;37.95;18.80;;;12.20;75.50;;;;;;5051048;28;20060;-72
2021/03/02 12:49:22;;;;;;;32.58;19.58;;;12.20;75.20;;;;;;5057051;28;20107;-72